Time;durP1;ratioP1;P1;durP2;ratioP2;P2;SDS_P1;SDS_P2;PMS_P1;PMS_P2;Temp;Humidity;BMP_temperature;BMP_pressure;BME280_temperature;BME280_humidity;BME280_pressure;Samples;Min_cycle;Max_cycle;Signal;HPM_P1;HPM_P2
2021/05/10 00:03:39;;;;;;;1.55;1.02;;;;;;;24.88;32.28;95615.47;4973790;22;20058;-70
2021/05/10 00:06:05;;;;;;;1.65;1.00;;;;;;;24.88;32.13;95604.56;5013893;28;20068;-69
2021/05/10 00:08:30;;;;;;;1.27;1.00;;;;;;;24.85;32.14;95591.91;5027570;28;20041;-70
2021/05/10 00:10:56;;;;;;;2.08;1.10;;;;;;;24.86;32.04;95596.13;5027007;28;20026;-69
2021/05/10 00:13:22;;;;;;;1.52;1.00;;;;;;;24.84;32.51;95597.88;5027573;28;20086;-70
2021/05/10 00:15:48;;;;;;;1.02;0.93;;;;;;;24.82;32.25;95601.09;5030042;28;20056;-70
2021/05/10 00:18:14;;;;;;;1.55;1.05;;;;;;;24.82;32.58;95601.09;4996989;28;20044;-68
2021/05/10 00:20:41;;;;;;;1.30;1.05;;;;;;;24.83;32.38;95597.13;5012976;28;20025;-70
2021/05/10 00:23:07;;;;;;;1.20;0.90;;;;;;;24.67;32.18;95582.81;5030432;28;20427;-69
2021/05/10 00:25:32;;;;;;;1.90;1.10;;;;;;;24.82;32.18;95601.09;5030586;28;20021;-69
2021/05/10 00:27:58;;;;;;;1.38;1.08;;;;;;;24.80;32.68;95591.19;5030444;28;20508;-69
2021/05/10 00:30:23;;;;;;;1.65;1.13;;;;;;;24.82;32.08;95599.63;5030417;28;20025;-68
2021/05/10 00:32:49;;;;;;;1.50;1.20;;;;;;;24.81;32.62;95603.59;5030753;28;20090;-70
2021/05/10 00:35:14;;;;;;;1.48;1.02;;;;;;;24.77;32.77;95597.66;5030220;28;20033;-70
2021/05/10 00:37:40;;;;;;;2.28;0.90;;;;;;;24.76;32.38;95596.19;5030609;28;20083;-70
2021/05/10 00:40:07;;;;;;;1.50;1.10;;;;;;;24.76;32.29;95596.94;5012717;28;20151;-70
2021/05/10 00:42:32;;;;;;;1.35;1.10;;;;;;;24.77;32.33;95598.41;5030224;28;20108;-70
2021/05/10 00:44:58;;;;;;;1.20;0.93;;;;;;;24.75;32.93;95600.16;5030344;28;20416;-70
2021/05/10 00:47:23;;;;;;;1.17;0.90;;;;;;;24.75;32.19;95592.69;5030141;28;20393;-68
2021/05/10 00:49:49;;;;;;;1.10;0.90;;;;;;;24.75;32.39;95591.97;5030131;28;20034;-69
2021/05/10 00:52:14;;;;;;;1.75;1.00;;;;;;;24.74;32.58;95587.75;5030123;28;20040;-69
2021/05/10 00:54:40;;;;;;;1.50;1.00;;;;;;;24.75;32.66;95597.44;5030020;28;20040;-69
2021/05/10 00:57:05;;;;;;;1.50;1.20;;;;;;;24.74;32.29;95587.75;5026169;28;20025;-69
2021/05/10 00:59:31;;;;;;;1.40;1.00;;;;;;;24.74;33.04;95593.97;5008809;28;20131;-69
2021/05/10 01:01:56;;;;;;;1.50;1.00;;;;;;;24.69;32.87;95583.78;5009135;28;20497;-69
2021/05/10 01:04:21;;;;;;;2.28;0.93;;;;;;;24.69;32.41;95591.97;5016412;28;20045;-69
2021/05/10 01:06:47;;;;;;;1.65;1.00;;;;;;;24.68;32.89;95581.56;5012231;28;20174;-68
2021/05/10 01:09:12;;;;;;;1.48;1.20;;;;;;;24.29;32.73;95520.91;5012062;28;20040;-69
2021/05/10 01:11:38;;;;;;;1.60;0.90;;;;;;;24.59;32.56;95565.50;5011943;28;20088;-70
2021/05/10 01:14:03;;;;;;;1.67;1.08;;;;;;;24.68;33.01;95578.84;5012135;28;20033;-70
2021/05/10 01:16:29;;;;;;;2.10;1.10;;;;;;;24.68;32.77;95584.28;5029590;28;20033;-70
2021/05/10 01:18:54;;;;;;;1.42;1.00;;;;;;;24.64;32.60;95590.03;5029747;28;20033;-70
2021/05/10 01:21:20;;;;;;;1.42;1.00;;;;;;;24.68;33.13;95587.03;5029771;28;20026;-69
2021/05/10 01:23:46;;;;;;;2.67;1.13;;;;;;;24.66;32.54;95584.78;5011679;28;20492;-69
2021/05/10 01:26:11;;;;;;;1.17;1.00;;;;;;;24.65;32.80;95575.13;5029047;28;20072;-70
2021/05/10 01:28:37;;;;;;;1.83;1.20;;;;;;;24.63;33.13;95579.59;5011841;28;20029;-70
2021/05/10 01:31:02;;;;;;;2.03;1.27;;;;;;;24.61;33.18;95577.38;5011469;28;20477;-70
2021/05/10 01:33:28;;;;;;;1.38;1.00;;;;;;;24.50;33.10;95552.13;5011338;28;20037;-69
2021/05/10 01:35:53;;;;;;;1.35;1.10;;;;;;;24.61;33.00;95579.38;5011478;28;20036;-69
2021/05/10 01:38:19;;;;;;;1.30;0.90;;;;;;;24.60;32.72;95577.88;5029479;28;20052;-69
2021/05/10 01:40:47;;;;;;;1.63;1.02;;;;;;;24.62;33.29;95572.66;5029173;28;20029;-70
2021/05/10 01:43:15;;;;;;;1.75;1.05;;;;;;;24.48;32.96;95554.59;5029111;28;20033;-70
2021/05/10 01:45:40;;;;;;;1.20;1.10;;;;;;;24.60;32.93;95577.88;5011550;28;20025;-69
2021/05/10 01:48:07;;;;;;;2.53;1.05;;;;;;;24.59;33.19;95581.88;5020587;28;20037;-71
2021/05/10 01:50:33;;;;;;;1.33;1.00;;;;;;;24.57;33.16;95578.88;4989575;28;20030;-70
2021/05/10 01:52:59;;;;;;;1.73;1.10;;;;;;;24.55;32.96;95571.19;4989907;28;20405;-70
2021/05/10 01:55:25;;;;;;;1.45;1.05;;;;;;;24.55;32.91;95565.00;4989849;28;20030;-69
2021/05/10 01:57:52;;;;;;;1.58;1.20;;;;;;;24.56;33.19;95566.50;4989854;28;20088;-69
2021/05/10 02:00:20;;;;;;;1.38;1.02;;;;;;;24.56;32.88;95571.97;4972382;28;20018;-70
2021/05/10 02:02:46;;;;;;;1.80;1.20;;;;;;;24.52;32.84;95576.94;4993601;28;20049;-70
2021/05/10 02:05:11;;;;;;;1.23;1.10;;;;;;;24.52;33.11;95577.66;5010908;28;20032;-69
2021/05/10 02:07:42;;;;;;;1.60;1.10;;;;;;;24.53;33.46;95578.44;5028533;28;20041;-70
2021/05/10 02:10:10;;;;;;;1.38;0.85;;;;;;;24.54;33.36;95580.66;5028451;28;20488;-70
2021/05/10 02:12:36;;;;;;;1.60;1.30;;;;;;;24.53;32.82;95578.44;5028749;28;20033;-70
2021/05/10 02:15:03;;;;;;;2.03;1.25;;;;;;;24.49;32.92;95577.94;5028498;28;20022;-70
2021/05/10 02:17:28;;;;;;;1.77;1.10;;;;;;;24.51;33.14;95580.91;5020221;28;20038;-70
2021/05/10 02:19:54;;;;;;;1.40;1.00;;;;;;;24.53;33.25;95572.97;5016355;28;20056;-70
2021/05/10 02:22:20;;;;;;;1.63;1.05;;;;;;;24.48;33.21;95587.38;5008902;28;20033;-70
2021/05/10 02:24:45;;;;;;;1.60;1.00;;;;;;;24.48;32.83;95571.75;5008730;28;20555;-68
2021/05/10 02:27:10;;;;;;;1.88;1.15;;;;;;;24.51;33.22;95591.81;5007272;28;20034;-70
2021/05/10 02:29:36;;;;;;;1.65;1.00;;;;;;;24.49;33.39;95588.88;5008603;28;20038;-70
2021/05/10 02:32:01;;;;;;;1.50;1.00;;;;;;;24.48;33.51;95587.38;5008571;28;20030;-67
2021/05/10 02:34:27;;;;;;;1.20;0.90;;;;;;;24.49;33.31;95591.59;5007230;28;20026;-68
2021/05/10 02:36:52;;;;;;;1.88;0.90;;;;;;;24.48;33.16;95592.81;5006531;28;20473;-66
2021/05/10 02:39:18;;;;;;;2.03;1.20;;;;;;;24.49;33.43;95588.88;5008556;28;20030;-68
2021/05/10 02:41:43;;;;;;;1.45;1.00;;;;;;;24.48;33.70;95598.28;5008424;28;20228;-69
2021/05/10 02:44:08;;;;;;;1.30;1.00;;;;;;;24.49;33.10;95594.31;5008325;28;20026;-68
2021/05/10 02:46:34;;;;;;;2.28;1.00;;;;;;;24.42;33.77;95583.91;5008482;28;20022;-69
2021/05/10 02:48:59;;;;;;;1.38;0.90;;;;;;;24.47;33.60;95602.28;5004662;28;20064;-68
2021/05/10 02:51:25;;;;;;;2.13;1.10;;;;;;;24.45;33.34;95599.28;4971288;28;20030;-69
2021/05/10 02:53:51;;;;;;;2.08;1.20;;;;;;;24.48;33.17;95603.75;4988990;28;20026;-69
2021/05/10 02:56:16;;;;;;;3.13;1.60;;;;;;;24.43;33.65;95590.88;4971087;28;20080;-68
2021/05/10 02:58:42;;;;;;;1.65;1.25;;;;;;;24.42;33.66;95590.13;4971294;28;20208;-69
2021/05/10 03:01:07;;;;;;;1.30;1.10;;;;;;;24.44;33.48;95600.56;4988616;28;20022;-69
2021/05/10 03:03:32;;;;;;;1.48;1.20;;;;;;;24.14;33.58;95553.22;4989077;28;20582;-69
2021/05/10 03:05:58;;;;;;;1.95;1.25;;;;;;;24.44;33.70;95592.38;5014903;28;20079;-69
2021/05/10 03:08:23;;;;;;;2.13;1.08;;;;;;;24.43;33.76;95590.88;5023357;28;20034;-68
2021/05/10 04:03:50;;;;;;;1.70;1.30;;;;;;;24.10;32.77;95629.13;4563224;27;790118;-71
2021/05/10 04:06:28;;;;;;;2.83;1.20;;;;;;;24.14;32.48;95632.38;4834131;29;20033;-71
2021/05/10 04:09:29;;;;;;;2.65;1.23;;;;;;;24.11;32.72;95630.63;4834197;29;20052;-71
2021/05/10 04:14:28;;;;;;;2.17;1.50;;;;;;;24.17;32.23;95639.56;4836269;29;20425;-70
2021/05/10 04:16:53;;;;;;;1.88;1.10;;;;;;;24.16;32.43;95635.34;4834077;29;20394;-71
2021/05/10 04:19:19;;;;;;;2.28;1.40;;;;;;;24.19;32.38;95637.06;4834916;29;20037;-69
2021/05/10 04:21:44;;;;;;;3.53;1.38;;;;;;;24.03;32.13;95629.63;4834089;29;20030;-73
2021/05/10 04:24:10;;;;;;;2.28;1.42;;;;;;;24.20;32.34;95638.56;4819214;29;20106;-72
2021/05/10 04:26:35;;;;;;;2.75;1.42;;;;;;;24.24;31.53;95639.03;4831833;29;20573;-71
2021/05/10 04:29:01;;;;;;;2.13;1.60;;;;;;;24.16;31.84;95643.53;4832203;29;20034;-71
2021/05/10 04:31:26;;;;;;;2.55;1.17;;;;;;;24.37;31.72;95636.56;4831745;29;20032;-71
2021/05/10 04:33:51;;;;;;;2.72;1.38;;;;;;;24.27;31.67;95643.50;4802419;29;20034;-71
2021/05/10 04:36:17;;;;;;;3.65;1.83;;;;;;;24.38;31.96;95643.50;4816977;29;20037;-71
2021/05/10 04:38:43;;;;;;;2.00;1.20;;;;;;;24.55;31.20;95646.94;4842448;29;20033;-72
2021/05/10 04:41:09;;;;;;;3.55;1.40;;;;;;;24.41;30.59;95658.88;4837554;29;20062;-75
2021/05/10 04:43:35;;;;;;;3.25;1.42;;;;;;;24.52;30.80;95653.38;4838449;29;20578;-71
2021/05/10 04:46:00;;;;;;;3.03;1.60;;;;;;;24.51;30.60;95641.72;4838805;29;20549;-72
2021/05/10 04:48:29;;;;;;;1.92;1.45;;;;;;;24.56;30.23;95648.41;4836266;29;20037;-71
2021/05/10 04:50:55;;;;;;;3.22;1.50;;;;;;;24.51;30.29;95662.81;4835633;29;20030;-71
2021/05/10 04:53:20;;;;;;;3.03;1.45;;;;;;;24.38;30.19;95654.44;4838407;29;20834;-71
2021/05/10 04:55:45;;;;;;;2.90;1.80;;;;;;;24.07;30.12;95662.88;4816736;29;20094;-68
2021/05/10 04:58:11;;;;;;;4.55;1.40;;;;;;;23.61;30.92;95658.41;4838218;29;20053;-71
2021/05/10 05:00:36;;;;;;;4.22;1.50;;;;;;;23.87;31.26;95649.50;4840870;29;20026;-70
2021/05/10 05:03:02;;;;;;;2.67;1.40;;;;;;;23.97;30.59;95658.91;4831753;29;20057;-70
2021/05/10 05:05:28;;;;;;;2.53;1.20;;;;;;;24.00;31.91;95657.91;4828967;29;20029;-72
2021/05/10 05:07:53;;;;;;;2.42;1.20;;;;;;;24.12;31.79;95659.41;4826015;29;20034;-72
2021/05/10 05:10:20;;;;;;;2.35;1.00;;;;;;;24.29;32.10;95657.41;4804145;29;20086;-72
2021/05/10 05:12:48;;;;;;;3.25;1.17;;;;;;;24.54;31.83;95650.91;4820712;29;20038;-70
2021/05/10 05:15:14;;;;;;;2.70;1.10;;;;;;;24.70;32.11;95652.84;4831379;29;20030;-71
2021/05/10 05:17:39;;;;;;;2.20;1.33;;;;;;;24.85;32.03;95654.75;4819189;29;20529;-72
2021/05/10 05:20:05;;;;;;;2.28;1.45;;;;;;;25.01;32.70;95651.22;4817211;29;20367;-71
2021/05/10 05:22:31;;;;;;;3.00;1.20;;;;;;;24.92;32.78;95621.44;4817518;29;20114;-71
2021/05/10 05:24:57;;;;;;;2.70;1.00;;;;;;;25.26;32.87;95650.09;4814804;29;20511;-70
2021/05/10 05:27:23;;;;;;;3.90;1.30;;;;;;;25.35;33.42;95647.03;4805722;29;20490;-73
2021/05/10 05:29:49;;;;;;;3.30;1.42;;;;;;;25.48;34.98;95650.69;4808022;29;20042;-72
2021/05/10 05:32:14;;;;;;;2.90;1.05;;;;;;;25.59;34.61;95644.41;4821773;29;20042;-69
2021/05/10 05:34:40;;;;;;;3.42;1.20;;;;;;;25.62;33.41;95649.63;4812706;29;20812;-72
2021/05/10 05:37:05;;;;;;;3.20;1.23;;;;;;;25.68;33.94;95644.09;4804974;29;20026;-71
2021/05/10 05:39:31;;;;;;;4.30;1.20;;;;;;;25.56;34.05;95645.41;4828192;29;20026;-71
2021/05/10 05:41:56;;;;;;;3.67;1.27;;;;;;;25.76;36.31;95653.28;4801900;29;20030;-74
2021/05/10 05:44:22;;;;;;;3.17;1.40;;;;;;;25.62;33.98;95635.16;4804012;29;20026;-73
2021/05/10 05:46:49;;;;;;;2.13;1.10;;;;;;;25.74;34.22;95650.28;4819210;29;20030;-73
2021/05/10 05:49:15;;;;;;;4.63;1.30;;;;;;;25.78;33.50;95645.28;4820394;29;20117;-72
2021/05/10 05:51:41;;;;;;;3.58;1.70;;;;;;;25.60;32.85;95651.38;4817742;29;21770;-72
2021/05/10 05:54:06;;;;;;;3.40;1.30;;;;;;;25.79;33.34;95664.66;4821074;29;20034;-71
2021/05/10 05:56:32;;;;;;;4.88;1.20;;;;;;;25.69;34.08;95631.94;4803103;29;20141;-69
2021/05/10 05:58:57;;;;;;;2.50;1.48;;;;;;;25.88;32.02;95656.13;4804294;29;20034;-70
2021/05/10 06:01:26;;;;;;;2.80;1.40;;;;;;;25.91;31.27;95655.13;4819787;29;20520;-71
2021/05/10 06:03:53;;;;;;;6.22;2.05;;;;;;;25.71;29.84;95662.25;4819296;29;20481;-68
2021/05/10 06:06:18;;;;;;;3.20;1.70;;;;;;;25.48;29.39;95656.16;4819641;29;20506;-70
2021/05/10 06:08:44;;;;;;;8.32;3.35;;;;;;;25.45;29.56;95657.16;4803579;29;20083;-71
2021/05/10 06:11:09;;;;;;;7.00;2.55;;;;;;;25.06;30.20;95647.72;4802562;29;20026;-73
2021/05/10 06:13:36;;;;;;;4.75;2.13;;;;;;;24.95;29.93;95653.22;4803702;29;20034;-71
2021/05/10 06:16:02;;;;;;;4.70;1.90;;;;;;;24.55;29.91;95614.16;4818690;29;20116;-70
2021/05/10 06:18:27;;;;;;;5.68;2.05;;;;;;;24.71;30.28;95643.38;4802605;29;20065;-70
2021/05/10 06:20:53;;;;;;;6.95;2.47;;;;;;;24.65;30.11;95645.38;4818648;29;20524;-68
2021/05/10 06:23:18;;;;;;;5.82;2.05;;;;;;;24.65;31.23;95646.16;4800687;29;20028;-67
2021/05/10 06:25:43;;;;;;;7.25;1.77;;;;;;;24.70;31.81;95637.19;4818874;29;20518;-67
2021/05/10 06:28:09;;;;;;;3.53;1.55;;;;;;;24.77;31.38;95644.84;4821612;29;21722;-67
2021/05/10 06:30:34;;;;;;;2.47;1.13;;;;;;;24.80;31.30;95634.91;4815842;29;20034;-66
2021/05/10 06:33:00;;;;;;;3.22;1.60;;;;;;;24.83;31.16;95629.91;4820034;29;20272;-66
2021/05/10 06:35:26;;;;;;;7.28;2.35;;;;;;;24.79;31.27;95638.91;4801632;29;20629;-66
2021/05/10 06:37:51;;;;;;;2.88;1.30;;;;;;;24.81;31.28;95641.84;4802054;29;20035;-66
2021/05/10 06:40:17;;;;;;;4.68;1.50;;;;;;;24.69;31.30;95613.09;4817545;29;20121;-66
2021/05/10 06:42:45;;;;;;;2.53;1.55;;;;;;;24.92;31.13;95626.91;4801104;29;20014;-66
2021/05/10 06:45:11;;;;;;;3.42;1.60;;;;;;;24.88;31.81;95620.94;4801163;29;20030;-66
2021/05/10 06:47:40;;;;;;;4.07;1.67;;;;;;;24.87;31.40;95619.47;4817290;29;20070;-66
2021/05/10 06:50:06;;;;;;;3.28;1.60;;;;;;;24.93;31.16;95617.47;4790389;29;20650;-66
2021/05/10 06:52:33;;;;;;;3.83;1.45;;;;;;;24.76;30.80;95607.84;4814465;29;20042;-66
2021/05/10 06:54:58;;;;;;;2.72;1.30;;;;;;;24.55;31.42;95584.13;4799986;29;20030;-66
2021/05/10 06:57:24;;;;;;;2.90;1.48;;;;;;;24.76;31.06;95607.13;4812694;29;20041;-65
2021/05/10 06:59:49;;;;;;;5.25;1.60;;;;;;;24.69;31.25;95607.63;4815908;29;20045;-66
2021/05/10 07:02:15;;;;;;;4.13;1.60;;;;;;;24.71;31.29;95607.88;4818468;29;20066;-66
2021/05/10 07:04:40;;;;;;;6.05;1.70;;;;;;;24.67;31.18;95605.41;4817145;29;20422;-66
2021/05/10 07:07:06;;;;;;;3.50;1.20;;;;;;;24.62;31.58;95608.16;4818272;29;20030;-66
2021/05/10 07:09:31;;;;;;;5.90;1.60;;;;;;;24.57;31.42;95600.75;4821697;29;20075;-66
2021/05/10 07:11:57;;;;;;;5.35;1.45;;;;;;;24.62;31.38;95613.63;4817813;29;20025;-67
2021/05/10 07:14:22;;;;;;;5.80;1.55;;;;;;;24.59;31.94;95614.66;4819029;29;20418;-67
2021/05/10 07:16:48;;;;;;;8.10;2.45;;;;;;;24.56;32.17;95610.19;4801299;29;20022;-65
2021/05/10 07:19:14;;;;;;;3.17;1.50;;;;;;;24.50;33.13;95606.75;4817534;29;20027;-66
2021/05/10 07:21:39;;;;;;;4.43;1.58;;;;;;;24.48;34.08;95609.22;4817169;29;20498;-67
2021/05/10 07:24:05;;;;;;;3.75;1.58;;;;;;;24.52;33.56;95598.78;4824088;29;20255;-67
2021/05/10 07:26:31;;;;;;;5.95;1.70;;;;;;;24.52;33.77;95615.16;4823372;29;20030;-67
2021/05/10 07:28:56;;;;;;;4.00;1.50;;;;;;;24.48;33.66;95604.50;4821860;29;20590;-65
2021/05/10 07:31:22;;;;;;;5.35;1.80;;;;;;;24.39;33.71;95609.50;4819271;29;20034;-65
2021/05/10 07:33:47;;;;;;;3.60;1.40;;;;;;;24.40;33.48;95608.25;4800703;29;20495;-66
2021/05/10 07:36:13;;;;;;;5.43;1.58;;;;;;;24.42;32.82;95605.75;4817521;29;20049;-66
2021/05/10 07:38:38;;;;;;;8.07;1.58;;;;;;;24.31;32.87;95605.78;4809857;29;20112;-66
2021/05/10 07:41:04;;;;;;;3.95;1.65;;;;;;;24.27;33.25;95594.34;4834736;29;20030;-66
2021/05/10 07:43:29;;;;;;;3.78;1.50;;;;;;;24.28;32.79;95601.31;4802569;29;20543;-66
2021/05/10 07:45:55;;;;;;;3.08;1.60;;;;;;;24.32;32.77;95601.81;4819252;29;20038;-65
2021/05/10 07:48:20;;;;;;;3.33;1.67;;;;;;;24.26;33.03;95600.31;4818773;29;20030;-65
2021/05/10 07:50:46;;;;;;;5.05;2.03;;;;;;;24.23;32.71;95598.59;4802810;29;20426;-65
2021/05/10 07:53:13;;;;;;;4.93;1.45;;;;;;;24.15;32.41;95576.53;4818239;29;20102;-65
2021/05/10 07:55:39;;;;;;;3.28;1.40;;;;;;;24.22;32.81;95603.31;4787972;29;20027;-65
2021/05/10 07:58:04;;;;;;;4.55;1.73;;;;;;;24.22;32.61;95592.41;4818701;29;20030;-65
2021/05/10 08:00:32;;;;;;;5.00;1.70;;;;;;;24.20;32.99;95594.88;4819027;29;20091;-65
2021/05/10 08:03:06;;;;;;;4.15;1.70;;;;;;;24.21;32.85;95595.63;4802492;29;20051;-66
2021/05/10 08:05:31;;;;;;;4.90;1.38;;;;;;;23.97;32.84;95560.69;4802643;29;20118;-65
2021/05/10 08:07:57;;;;;;;5.97;1.88;;;;;;;24.19;32.93;95587.22;4818235;29;20083;-65
2021/05/10 08:10:22;;;;;;;4.40;1.10;;;;;;;24.00;32.71;95567.88;4818313;29;20046;-66
2021/05/10 08:12:48;;;;;;;3.97;1.70;;;;;;;24.19;33.29;95582.47;4801533;29;20076;-65
2021/05/10 08:15:13;;;;;;;4.25;1.75;;;;;;;24.18;32.88;95583.72;4817524;29;20038;-65
2021/05/10 08:17:39;;;;;;;4.43;1.80;;;;;;;24.25;33.07;95577.75;4800680;29;20034;-66
2021/05/10 08:20:05;;;;;;;3.22;1.30;;;;;;;24.26;33.06;95576.50;4817050;29;20068;-66
2021/05/10 08:22:30;;;;;;;6.15;2.22;;;;;;;24.26;32.86;95576.50;4817894;29;20494;-66
2021/05/10 08:24:56;;;;;;;5.43;1.80;;;;;;;24.28;32.57;95573.28;4801385;29;20033;-66
2021/05/10 08:27:22;;;;;;;4.93;1.50;;;;;;;24.23;32.85;95563.88;4818201;29;20030;-66
2021/05/10 08:29:47;;;;;;;3.80;1.48;;;;;;;24.23;32.79;95561.13;4801211;29;20030;-66
2021/05/10 08:32:12;;;;;;;6.28;1.80;;;;;;;24.24;32.32;95557.16;4803883;29;20574;-66
2021/05/10 08:34:38;;;;;;;6.63;1.75;;;;;;;24.23;32.30;95547.50;4817900;29;20041;-66
2021/05/10 08:37:03;;;;;;;5.50;1.95;;;;;;;24.22;32.77;95537.81;4817723;29;20547;-66
2021/05/10 08:39:29;;;;;;;7.38;2.00;;;;;;;24.25;32.65;95542.25;4819737;29;20031;-66
2021/05/10 08:41:54;;;;;;;5.88;1.67;;;;;;;24.14;33.02;95520.47;4822005;29;20074;-65
2021/05/10 08:44:20;;;;;;;9.05;1.83;;;;;;;24.30;32.78;95538.75;4820713;29;20517;-66
2021/05/10 08:46:46;;;;;;;4.35;1.95;;;;;;;24.30;32.84;95533.31;4821322;29;20512;-65
2021/05/10 08:49:17;;;;;;;7.53;1.80;;;;;;;24.35;32.85;95524.41;4820883;29;20031;-65
2021/05/10 08:51:43;;;;;;;4.50;1.70;;;;;;;24.37;33.04;95521.91;4819233;29;20026;-65
2021/05/10 08:54:24;;;;;;;9.18;1.80;;;;;;;24.35;33.12;95524.41;4804176;29;20519;-65
2021/05/10 08:56:50;;;;;;;4.43;1.77;;;;;;;24.38;32.66;95523.38;4819455;29;20058;-65
2021/05/10 08:59:15;;;;;;;5.60;1.88;;;;;;;24.39;32.56;95519.41;4819559;29;20034;-67
2021/05/10 09:01:48;;;;;;;7.07;2.00;;;;;;;24.39;31.94;95524.84;4805742;29;20038;-66
2021/05/10 09:04:14;;;;;;;8.88;1.90;;;;;;;24.37;32.12;95522.63;4805015;29;20057;-66
2021/05/10 09:06:40;;;;;;;7.43;1.90;;;;;;;24.42;32.51;95512.94;4821467;29;20037;-67
2021/05/10 09:09:08;;;;;;;6.47;1.90;;;;;;;24.43;32.82;95519.88;4821957;29;20030;-66
2021/05/10 09:11:34;;;;;;;6.03;2.10;;;;;;;24.44;33.04;95507.72;4819335;29;20039;-66
2021/05/10 09:14:00;;;;;;;3.95;1.60;;;;;;;24.48;33.02;95510.91;4826658;29;20034;-69
2021/05/10 09:16:25;;;;;;;3.95;1.48;;;;;;;24.56;33.04;95504.44;4800985;29;20487;-70
2021/05/10 09:18:51;;;;;;;6.70;1.65;;;;;;;24.62;33.42;95504.38;4826545;29;20048;-69
2021/05/10 09:21:21;;;;;;;4.60;2.17;;;;;;;24.66;34.08;95496.66;4819456;29;20038;-69
2021/05/10 09:23:46;;;;;;;6.55;1.92;;;;;;;24.74;34.44;95500.34;4828833;29;20134;-68
2021/05/10 09:26:12;;;;;;;5.88;1.85;;;;;;;24.77;35.41;95488.41;4789724;29;20426;-67
2021/05/10 09:28:41;;;;;;;5.75;1.65;;;;;;;24.84;35.33;95494.81;4824015;29;20064;-67
2021/05/10 09:31:08;;;;;;;5.53;1.73;;;;;;;24.93;35.72;95469.91;4821704;29;20098;-67
2021/05/10 09:33:35;;;;;;;6.22;2.00;;;;;;;24.99;35.46;95473.38;4829105;29;20052;-68
2021/05/10 09:36:07;;;;;;;7.18;1.67;;;;;;;25.11;35.62;95474.78;4821056;29;20534;-68
2021/05/10 09:38:36;;;;;;;7.15;1.50;;;;;;;25.21;34.82;95466.97;4822479;29;20041;-68
2021/05/10 09:41:02;;;;;;;3.70;1.83;;;;;;;25.30;34.67;95470.13;4802825;29;20030;-69
2021/05/10 09:43:35;;;;;;;5.72;1.60;;;;;;;25.40;34.39;95466.53;4829800;29;20030;-68
2021/05/10 09:46:21;;;;;;;4.18;1.50;;;;;;;25.54;34.81;95457.19;4806928;29;20117;-68
2021/05/10 09:48:46;;;;;;;3.42;1.60;;;;;;;25.67;34.43;95460.09;4802959;29;20042;-67
2021/05/10 09:51:13;;;;;;;5.22;1.63;;;;;;;25.80;34.30;95458.19;4819695;29;20049;-70
2021/05/10 09:53:50;;;;;;;4.25;1.55;;;;;;;25.73;34.13;95441.63;4803938;29;20040;-71
2021/05/10 09:56:16;;;;;;;5.07;1.50;;;;;;;25.85;34.03;95432.75;4804080;29;20104;-71
2021/05/10 09:58:45;;;;;;;4.30;1.88;;;;;;;26.15;32.98;95460.75;4818142;29;20175;-74
2021/05/10 10:01:10;;;;;;;3.30;1.30;;;;;;;26.22;33.41;95443.75;4812907;29;20233;-78
2021/05/10 10:03:37;;;;;;;6.78;1.52;;;;;;;26.35;33.24;95436.38;4813606;29;20058;-70
2021/05/10 10:06:05;;;;;;;4.07;1.50;;;;;;;26.42;32.44;95435.06;4819078;29;20137;-71
2021/05/10 10:08:30;;;;;;;3.72;1.77;;;;;;;26.54;32.92;95436.38;4818850;29;20034;-70
2021/05/10 10:10:56;;;;;;;2.97;1.25;;;;;;;26.65;32.41;95441.69;4820721;29;20718;-70
2021/05/10 10:13:22;;;;;;;4.97;2.03;;;;;;;26.70;32.58;95432.66;4827714;29;20030;-70
2021/05/10 10:15:47;;;;;;;5.35;1.63;;;;;;;26.80;32.23;95437.97;4819971;29;20042;-71
2021/05/10 10:18:19;;;;;;;4.38;1.23;;;;;;;26.90;32.17;95430.84;4818832;29;20102;-71
2021/05/10 10:20:46;;;;;;;4.38;1.50;;;;;;;26.98;32.15;95431.72;4819126;29;21589;-71
2021/05/10 10:23:12;;;;;;;3.65;1.20;;;;;;;27.07;32.06;95434.06;4819152;29;20047;-71
2021/05/10 10:25:38;;;;;;;3.50;1.35;;;;;;;27.14;31.40;95433.44;4819144;29;20026;-70
2021/05/10 10:28:06;;;;;;;2.55;1.35;;;;;;;27.17;31.37;95426.91;4800027;29;20426;-72
2021/05/10 10:30:33;;;;;;;3.95;1.20;;;;;;;27.07;31.37;95401.19;4818533;29;20045;-72
2021/05/10 10:33:01;;;;;;;3.35;1.45;;;;;;;27.30;31.51;95413.22;4803563;29;20517;-71
2021/05/10 10:35:26;;;;;;;3.10;1.30;;;;;;;27.21;30.88;95404.69;4788094;29;20392;-71
2021/05/10 10:37:52;;;;;;;3.55;1.58;;;;;;;27.42;31.07;95417.25;4788334;29;20030;-72
2021/05/10 10:40:20;;;;;;;3.47;1.40;;;;;;;27.48;31.20;95412.41;4802917;29;20507;-72
2021/05/10 10:42:45;;;;;;;3.47;1.25;;;;;;;27.49;30.63;95408.41;4802138;29;20117;-70
2021/05/10 10:45:11;;;;;;;2.95;1.30;;;;;;;27.51;31.24;95401.13;4803144;29;20030;-69
2021/05/10 10:47:43;;;;;;;2.78;1.23;;;;;;;27.55;31.22;95395.31;4806853;29;20117;-69
2021/05/10 10:50:13;;;;;;;2.25;1.20;;;;;;;27.61;30.98;95404.19;4819170;29;20514;-70
2021/05/10 10:52:48;;;;;;;2.72;1.17;;;;;;;27.59;31.46;95401.25;4820093;29;20068;-71
2021/05/10 10:55:13;;;;;;;3.50;1.35;;;;;;;27.62;31.42;95392.69;4819121;29;20100;-67
2021/05/10 10:57:39;;;;;;;3.38;1.20;;;;;;;27.59;31.49;95390.28;4827934;29;20526;-69
2021/05/10 11:00:05;;;;;;;2.40;1.20;;;;;;;27.51;31.73;95389.44;4820659;29;20034;-70
2021/05/10 11:02:41;;;;;;;3.00;1.20;;;;;;;27.48;31.61;95390.47;4827274;29;20078;-74
2021/05/10 11:05:17;;;;;;;3.70;1.30;;;;;;;27.48;30.58;95391.19;4815152;29;20447;-70
2021/05/10 11:07:46;;;;;;;2.22;1.13;;;;;;;27.49;31.52;95375.47;4820148;29;20042;-68
2021/05/10 11:10:11;;;;;;;4.07;1.40;;;;;;;27.49;30.77;95378.97;4818651;29;20038;-68
2021/05/10 11:12:52;;;;;;;4.00;1.20;;;;;;;27.52;30.70;95374.44;4800997;29;20049;-67
2021/05/10 11:15:38;;;;;;;1.83;1.10;;;;;;;27.54;30.42;95372.66;4819109;29;20026;-67
2021/05/10 11:18:05;;;;;;;4.47;1.58;;;;;;;27.54;30.26;95349.97;4813811;29;20066;-68
2021/05/10 11:20:43;;;;;;;1.70;1.17;;;;;;;27.54;30.38;95355.47;4802121;29;20042;-67
2021/05/10 11:23:21;;;;;;;4.38;1.83;;;;;;;27.59;30.37;95351.84;4828680;29;20026;-67
2021/05/10 11:25:47;;;;;;;4.07;1.65;;;;;;;27.64;30.19;95353.75;4818947;29;20042;-67
2021/05/10 11:28:24;;;;;;;4.07;1.45;;;;;;;27.62;30.07;95345.31;4827151;29;20050;-67
2021/05/10 11:31:05;;;;;;;2.35;1.10;;;;;;;27.57;30.24;95348.91;4819047;29;20034;-67
2021/05/10 11:33:52;;;;;;;2.30;1.48;;;;;;;27.53;30.19;95343.00;4826436;29;20415;-67
2021/05/10 11:36:24;;;;;;;2.13;1.40;;;;;;;27.48;30.34;95335.59;4820366;29;20499;-67
2021/05/10 11:38:57;;;;;;;3.28;1.10;;;;;;;27.42;30.03;95326.72;4826332;29;20039;-67
2021/05/10 11:41:42;;;;;;;2.80;1.20;;;;;;;27.42;29.84;95321.97;4807849;29;20129;-67
2021/05/10 11:44:28;;;;;;;2.75;1.35;;;;;;;27.25;29.96;95307.84;4811012;29;20034;-68
2021/05/10 11:46:54;;;;;;;4.50;1.50;;;;;;;27.39;30.09;95325.03;4796652;29;20103;-67
2021/05/10 11:49:23;;;;;;;3.78;1.30;;;;;;;27.35;30.02;95327.34;4827655;29;20037;-67
2021/05/10 11:51:48;;;;;;;2.35;1.20;;;;;;;27.00;29.76;95281.16;4817522;29;20472;-67
2021/05/10 11:54:14;;;;;;;3.58;1.40;;;;;;;27.29;29.83;95318.50;4801636;29;20034;-68
2021/05/10 11:56:46;;;;;;;2.15;1.10;;;;;;;27.23;30.16;95319.88;4819366;29;20042;-68
2021/05/10 11:59:45;;;;;;;2.55;1.30;;;;;;;27.18;30.23;95307.00;4800649;29;20030;-68
2021/05/10 12:02:11;;;;;;;2.13;1.13;;;;;;;27.18;30.38;95313.22;4815849;29;20034;-68
2021/05/10 12:04:37;;;;;;;4.18;1.45;;;;;;;27.16;30.22;95307.53;4819081;29;20038;-68
2021/05/10 12:07:03;;;;;;;1.83;1.13;;;;;;;27.09;30.22;95299.94;4819271;29;20455;-68
2021/05/10 12:09:57;;;;;;;2.03;1.30;;;;;;;27.06;29.87;95300.25;4819559;29;20038;-68
2021/05/10 12:12:24;;;;;;;1.90;1.35;;;;;;;26.82;30.16;95270.25;4822090;29;20126;-67
2021/05/10 12:14:50;;;;;;;2.17;1.23;;;;;;;27.02;30.23;95295.06;4820308;29;20038;-67
2021/05/10 12:17:24;;;;;;;1.60;1.20;;;;;;;26.99;30.25;95290.63;4818324;29;20031;-67
2021/05/10 12:19:56;;;;;;;2.88;1.50;;;;;;;26.92;29.85;95280.31;4821085;29;20034;-66
2021/05/10 12:22:43;;;;;;;2.97;1.50;;;;;;;26.86;30.09;95287.88;4821974;29;20059;-66
2021/05/10 12:25:12;;;;;;;3.70;1.38;;;;;;;26.84;30.16;95284.16;4806916;29;20038;-66
2021/05/10 12:27:39;;;;;;;2.03;1.30;;;;;;;26.87;29.93;95277.63;4821787;29;20107;-66
2021/05/10 12:30:18;;;;;;;2.67;1.35;;;;;;;26.82;29.64;95270.25;4820881;29;20487;-69
2021/05/10 12:32:44;;;;;;;1.88;1.20;;;;;;;26.85;30.03;95280.91;4822748;29;20041;-68